createdAt,value
2018-08-03T00:00:24.844Z,101339.73
2018-08-03T00:01:24.562Z,101340.16
2018-08-03T00:02:26.362Z,101340.23
2018-08-03T00:03:27.135Z,101340.20
2018-08-03T00:04:27.917Z,101340.11
2018-08-03T00:05:28.683Z,101340.27
2018-08-03T00:06:29.465Z,101339.83
2018-08-03T00:07:30.263Z,101339.25
2018-08-03T00:08:31.035Z,101339.19
2018-08-03T00:09:32.806Z,101339.27
2018-08-03T00:10:32.581Z,101339.64
2018-08-03T00:11:33.720Z,101339.69
2018-08-03T00:13:24.659Z,101344.75
2018-08-03T00:14:25.442Z,101344.33
2018-08-03T00:15:26.201Z,101344.33
2018-08-03T00:16:26.975Z,101344.84
2018-08-03T00:17:27.765Z,101344.80
2018-08-03T00:18:28.541Z,101345.31
2018-08-03T00:19:29.309Z,101345.14
2018-08-03T00:20:30.094Z,101345.31
2018-08-03T00:21:30.855Z,101345.41
2018-08-03T00:22:31.652Z,101345.69
2018-08-03T00:23:32.424Z,101345.36
2018-08-03T00:24:33.194Z,101345.28
2018-08-03T00:25:33.973Z,101344.95
2018-08-03T00:26:34.746Z,101345.02
2018-08-03T00:27:36.269Z,101344.86
2018-08-03T00:28:36.040Z,101344.52
2018-08-03T00:29:36.813Z,101344.14
2018-08-03T00:30:37.591Z,101344.20
2018-08-03T00:31:38.363Z,101344.81
2018-08-03T00:32:39.169Z,101344.86
2018-08-03T00:33:39.938Z,101344.63
2018-08-03T00:34:40.717Z,101344.83
2018-08-03T00:35:41.492Z,101344.48
2018-08-03T00:36:42.275Z,101344.30
2018-08-03T00:37:43.069Z,101344.33
2018-08-03T00:38:43.840Z,101344.08
2018-08-03T00:39:44.616Z,101344.11
2018-08-03T00:40:45.390Z,101343.47
2018-08-03T00:41:46.165Z,101343.64
2018-08-03T00:42:46.965Z,101343.07
2018-08-03T00:43:47.743Z,101343.02
2018-08-03T00:44:48.511Z,101342.56
2018-08-03T00:45:49.291Z,101342.63
2018-08-03T00:46:50.067Z,101342.34
2018-08-03T00:47:50.872Z,101342.59
2018-08-03T00:48:51.640Z,101342.56
2018-08-03T00:49:52.411Z,101342.20
2018-08-03T00:50:53.191Z,101342.64
2018-08-03T00:51:53.963Z,101342.44
2018-08-03T00:52:54.769Z,101342.42
2018-08-03T00:53:55.536Z,101342.16
2018-08-03T00:54:56.317Z,101342.41
2018-08-03T00:55:57.087Z,101342.13
2018-08-03T00:56:57.867Z,101342.16
2018-08-03T00:57:58.667Z,101342.16
2018-08-03T00:58:59.438Z,101342.74
2018-08-03T01:00:00.208Z,101342.91
2018-08-03T01:01:00.985Z,101343.20
2018-08-03T01:02:01.750Z,101343.25
2018-08-03T01:03:02.547Z,101343.69
2018-08-03T01:04:03.319Z,101344.23
2018-08-03T01:05:04.091Z,101344.45
2018-08-03T01:06:04.867Z,101344.53
2018-08-03T01:07:05.639Z,101344.56
2018-08-03T01:08:06.443Z,101344.30
2018-08-03T01:09:07.213Z,101344.34
2018-08-03T01:10:07.990Z,101344.81
2018-08-03T01:11:08.763Z,101344.69
2018-08-03T01:12:09.534Z,101345.22
2018-08-03T01:13:10.335Z,101345.39
2018-08-03T01:14:11.109Z,101346.00
2018-08-03T01:15:11.881Z,101346.55
2018-08-03T01:16:12.649Z,101347.54
2018-08-03T01:17:13.426Z,101348.73
2018-08-03T01:18:14.224Z,101349.24
2018-08-03T01:19:14.990Z,101349.83
2018-08-03T01:20:15.762Z,101351.01
2018-08-03T01:21:16.541Z,101352.19
2018-08-03T01:22:17.318Z,101353.81
2018-08-03T01:23:18.115Z,101354.91
2018-08-03T01:24:18.889Z,101356.19
2018-08-03T01:25:19.664Z,101357.24
2018-08-03T01:26:20.440Z,101358.00
2018-08-03T01:27:21.214Z,101358.46
2018-08-03T01:28:22.021Z,101358.61
2018-08-03T01:29:22.787Z,101359.00
2018-08-03T01:30:23.565Z,101359.50
2018-08-03T01:31:24.338Z,101359.48
2018-08-03T01:32:25.114Z,101359.88
2018-08-03T01:33:25.916Z,101360.16
2018-08-03T01:34:26.689Z,101359.95
2018-08-03T01:35:27.479Z,101360.01
2018-08-03T01:36:28.248Z,101360.18
2018-08-03T01:37:29.025Z,101359.59
2018-08-03T01:38:29.819Z,101359.30
2018-08-03T01:39:30.590Z,101358.97
2018-08-03T01:40:31.364Z,101359.36
2018-08-03T01:41:32.142Z,101358.74
2018-08-03T01:42:32.911Z,101358.38
2018-08-03T01:43:33.714Z,101358.14
2018-08-03T01:44:34.486Z,101357.77
2018-08-03T01:45:35.272Z,101357.15
2018-08-03T01:46:36.044Z,101356.78
2018-08-03T01:47:36.814Z,101356.58
2018-08-03T01:48:37.617Z,101356.48
2018-08-03T01:49:38.389Z,101355.86
2018-08-03T01:50:39.167Z,101355.23
2018-08-03T01:51:39.937Z,101355.38
2018-08-03T01:52:40.717Z,101355.02
2018-08-03T01:53:41.516Z,101355.13
2018-08-03T01:54:42.292Z,101354.88
2018-08-03T01:55:43.063Z,101355.16
2018-08-03T01:56:43.844Z,101355.58
2018-08-03T01:57:44.619Z,101355.82
2018-08-03T01:58:45.414Z,101356.27
2018-08-03T01:59:46.587Z,101356.42
2018-08-03T02:04:49.866Z,101368.66
2018-08-03T02:05:50.637Z,101368.07
2018-08-03T02:06:50.409Z,101367.72
2018-08-03T02:07:52.186Z,101367.20
2018-08-03T02:08:52.957Z,101366.52
2018-08-03T02:09:53.764Z,101366.59
2018-08-03T02:10:54.535Z,101366.67
2018-08-03T02:11:55.309Z,101367.06
2018-08-03T02:12:56.085Z,101366.84
2018-08-03T02:13:56.864Z,101367.11
2018-08-03T02:14:57.666Z,101366.69
2018-08-03T02:15:58.440Z,101367.38
2018-08-03T02:16:59.210Z,101367.90
2018-08-03T02:17:59.981Z,101368.41
2018-08-03T02:19:00.761Z,101368.46
2018-08-03T02:20:01.561Z,101369.00
2018-08-03T02:21:02.335Z,101369.66
2018-08-03T02:22:03.107Z,101369.80
2018-08-03T02:23:03.888Z,101370.06
2018-08-03T02:24:04.665Z,101369.81
2018-08-03T02:25:05.457Z,101369.64
2018-08-03T02:26:06.229Z,101369.77
2018-08-03T02:27:07.005Z,101369.27
2018-08-03T02:28:07.773Z,101369.16
2018-08-03T02:29:08.557Z,101369.13
2018-08-03T02:30:09.344Z,101368.50
2018-08-03T02:31:10.117Z,101368.17
2018-08-03T02:32:10.889Z,101368.27
2018-08-03T02:33:11.666Z,101368.07
2018-08-03T02:34:12.438Z,101368.12
2018-08-03T02:35:13.240Z,101368.48
2018-08-03T02:36:14.013Z,101368.19
2018-08-03T02:37:14.786Z,101368.89
2018-08-03T02:38:15.559Z,101369.20
2018-08-03T02:39:16.332Z,101369.25
2018-08-03T02:40:17.135Z,101369.96
2018-08-03T02:41:17.915Z,101370.70
2018-08-03T02:42:18.693Z,101371.02
2018-08-03T02:43:19.464Z,101371.20
2018-08-03T02:44:20.240Z,101371.27
2018-08-03T02:45:21.042Z,101372.02
2018-08-03T02:46:21.814Z,101372.16
2018-08-03T02:47:22.591Z,101372.48
2018-08-03T02:48:23.362Z,101373.09
2018-08-03T02:49:24.137Z,101373.02
2018-08-03T02:50:24.937Z,101373.48
2018-08-03T02:51:25.710Z,101373.25
2018-08-03T02:52:26.486Z,101373.47
2018-08-03T02:53:27.257Z,101373.62
2018-08-03T02:54:28.037Z,101373.69
2018-08-03T02:55:28.832Z,101374.34
2018-08-03T02:56:29.605Z,101374.67
2018-08-03T02:57:30.378Z,101375.13
2018-08-03T02:58:31.152Z,101376.13
2018-08-03T02:59:31.926Z,101376.63
2018-08-03T03:00:32.723Z,101377.08
2018-08-03T03:01:33.492Z,101377.80
2018-08-03T03:02:34.267Z,101378.02
2018-08-03T03:03:35.037Z,101378.44
2018-08-03T03:04:35.809Z,101378.74
2018-08-03T03:05:36.611Z,101378.61
2018-08-03T03:06:37.387Z,101378.81
2018-08-03T03:07:38.160Z,101379.10
2018-08-03T03:08:38.935Z,101379.23
2018-08-03T03:09:39.710Z,101379.34
2018-08-03T03:10:40.507Z,101379.77
2018-08-03T03:11:41.279Z,101379.53
2018-08-03T03:12:42.053Z,101379.70
2018-08-03T03:13:42.825Z,101379.84
2018-08-03T03:14:43.603Z,101379.81
2018-08-03T03:15:44.405Z,101380.09
2018-08-03T03:16:45.168Z,101380.06
2018-08-03T03:17:45.943Z,101379.86
2018-08-03T03:18:46.715Z,101380.00
2018-08-03T03:19:47.498Z,101380.19
2018-08-03T03:20:47.287Z,101380.23
2018-08-03T03:21:49.069Z,101379.95
2018-08-03T03:22:49.839Z,101379.77
2018-08-03T03:23:50.611Z,101380.01
2018-08-03T03:24:51.390Z,101380.20
2018-08-03T03:25:52.187Z,101380.19
2018-08-03T03:26:52.960Z,101380.08
2018-08-03T03:27:53.731Z,101380.22
2018-08-03T03:28:54.506Z,101380.36
2018-08-03T03:29:55.286Z,101380.16
2018-08-03T03:30:56.083Z,101379.83
2018-08-03T03:31:57.852Z,101379.28
2018-08-03T03:32:57.629Z,101379.77
2018-08-03T03:33:58.396Z,101379.91
2018-08-03T03:34:59.201Z,101379.76
2018-08-03T03:35:59.971Z,101379.98
2018-08-03T03:36:59.740Z,101379.57
2018-08-03T03:38:01.520Z,101379.96
2018-08-03T03:39:02.286Z,101379.77
2018-08-03T03:40:03.091Z,101379.83
2018-08-03T03:41:03.865Z,101379.81
2018-08-03T03:42:04.638Z,101380.27
2018-08-03T03:43:05.411Z,101380.52
2018-08-03T03:44:06.185Z,101380.55
2018-08-03T03:45:06.989Z,101380.66
2018-08-03T03:46:07.759Z,101380.99
2018-08-03T03:47:08.540Z,101381.01
2018-08-03T03:48:09.309Z,101380.39
2018-08-03T03:49:10.087Z,101380.05
2018-08-03T03:50:10.884Z,101379.86
2018-08-03T03:51:11.660Z,101379.58
2018-08-03T03:52:12.435Z,101379.47
2018-08-03T03:53:13.231Z,101379.70
2018-08-03T03:54:14.393Z,101380.11
2018-08-03T03:55:14.605Z,101380.17
2018-08-03T03:56:13.804Z,101379.37
2018-08-03T04:01:11.472Z,101376.55
2018-08-03T04:02:12.245Z,101375.96
2018-08-03T04:03:13.015Z,101375.87
2018-08-03T04:04:13.786Z,101375.39
2018-08-03T04:05:14.571Z,101375.64
2018-08-03T04:06:15.353Z,101375.55
2018-08-03T04:07:16.123Z,101375.38
2018-08-03T04:08:16.903Z,101375.67
2018-08-03T04:09:17.671Z,101376.00
2018-08-03T04:10:18.450Z,101375.57
2018-08-03T04:11:20.244Z,101375.39
2018-08-03T04:12:19.074Z,101375.74
2018-08-03T04:13:19.791Z,101375.78
2018-08-03T04:14:21.572Z,101375.66
2018-08-03T04:15:22.343Z,101375.50
2018-08-03T04:16:23.139Z,101375.85
2018-08-03T04:17:23.910Z,101375.98
2018-08-03T04:18:24.677Z,101375.57
2018-08-03T04:19:25.449Z,101375.63
2018-08-03T04:20:26.223Z,101376.07
2018-08-03T04:21:27.027Z,101375.79
2018-08-03T04:22:27.798Z,101375.80
2018-08-03T04:23:28.572Z,101375.52
2018-08-03T04:24:29.346Z,101375.41
2018-08-03T04:25:30.153Z,101375.55
2018-08-03T04:26:30.927Z,101375.59
2018-08-03T04:27:31.701Z,101375.98
2018-08-03T04:28:32.476Z,101375.98
2018-08-03T04:29:33.245Z,101376.37
2018-08-03T04:30:35.015Z,101376.39
2018-08-03T04:31:34.814Z,101377.25
2018-08-03T04:32:35.581Z,101377.55
2018-08-03T04:33:36.356Z,101378.16
2018-08-03T04:34:37.129Z,101378.84
2018-08-03T04:35:37.901Z,101378.84
2018-08-03T04:36:38.700Z,101379.11
2018-08-03T04:37:39.473Z,101379.55
2018-08-03T04:38:40.250Z,101379.59
2018-08-03T04:39:41.020Z,101380.03
2018-08-03T04:40:41.802Z,101380.89
2018-08-03T04:41:42.599Z,101381.03
2018-08-03T04:42:43.378Z,101381.00
2018-08-03T04:43:44.149Z,101381.53
2018-08-03T04:44:44.924Z,101382.27
2018-08-03T04:45:45.702Z,101382.41
2018-08-03T04:46:46.495Z,101383.02
2018-08-03T04:47:47.280Z,101383.38
2018-08-03T04:48:48.050Z,101384.19
2018-08-03T04:49:48.834Z,101384.55
2018-08-03T04:50:49.595Z,101385.05
2018-08-03T04:51:50.500Z,101385.91
2018-08-03T04:52:50.183Z,101386.41
2018-08-03T04:53:51.957Z,101387.32
2018-08-03T04:54:52.731Z,101388.07
2018-08-03T04:55:53.502Z,101388.96
2018-08-03T04:56:54.298Z,101389.34
2018-08-03T04:57:55.070Z,101390.04
2018-08-03T04:58:55.843Z,101390.66
2018-08-03T04:59:56.617Z,101391.33
2018-08-03T05:00:57.390Z,101392.11
2018-08-03T05:01:58.195Z,101392.39
2018-08-03T05:02:58.970Z,101393.27
2018-08-03T05:03:59.739Z,101393.75
2018-08-03T05:05:00.519Z,101394.32
2018-08-03T05:06:01.283Z,101394.64
2018-08-03T05:07:02.096Z,101394.83
2018-08-03T05:08:02.857Z,101395.05
2018-08-03T05:09:03.640Z,101394.84
2018-08-03T05:10:04.400Z,101394.40
2018-08-03T05:11:05.180Z,101393.95
2018-08-03T05:12:05.979Z,101393.77
2018-08-03T05:13:06.748Z,101393.30
2018-08-03T05:14:07.527Z,101392.94
2018-08-03T05:15:08.305Z,101392.41
2018-08-03T05:16:09.094Z,101392.04
2018-08-03T05:17:09.908Z,101392.28
2018-08-03T05:18:10.680Z,101392.17
2018-08-03T05:19:11.454Z,101391.77
2018-08-03T05:20:12.229Z,101392.11
2018-08-03T05:21:13.004Z,101392.36
2018-08-03T05:22:13.806Z,101392.17
2018-08-03T05:23:14.580Z,101392.32
2018-08-03T05:24:14.380Z,101392.52
2018-08-03T05:25:16.123Z,101392.77
2018-08-03T05:26:16.900Z,101392.61
2018-08-03T05:27:17.698Z,101393.44
2018-08-03T05:28:18.483Z,101394.06
2018-08-03T05:29:19.249Z,101394.05
2018-08-03T05:30:20.054Z,101394.05
2018-08-03T05:31:19.812Z,101394.30
2018-08-03T05:32:21.602Z,101394.77
2018-08-03T05:33:22.379Z,101395.00
2018-08-03T05:34:23.154Z,101395.20
2018-08-03T05:35:23.951Z,101394.66
2018-08-03T05:36:23.732Z,101394.74
2018-08-03T05:37:24.507Z,101394.86
2018-08-03T05:38:26.278Z,101394.97
2018-08-03T05:39:27.060Z,101395.20
2018-08-03T05:40:27.832Z,101394.98
2018-08-03T05:41:28.603Z,101395.00
2018-08-03T05:42:29.442Z,101394.64
2018-08-03T05:43:29.177Z,101394.52
2018-08-03T05:44:30.960Z,101394.09
2018-08-03T05:45:31.745Z,101393.64
2018-08-03T05:46:31.499Z,101392.52
2018-08-03T05:47:33.352Z,101392.45
2018-08-03T05:48:33.083Z,101391.95
2018-08-03T05:49:33.846Z,101391.25
2018-08-03T05:50:40.380Z,101390.58
2018-08-03T05:51:37.178Z,101390.20
2018-08-03T05:52:36.956Z,101389.03
2018-08-03T05:53:37.729Z,101388.50
2018-08-03T05:54:38.505Z,101388.84
2018-08-03T05:55:39.275Z,101388.16
2018-08-03T05:56:40.047Z,101387.66
2018-08-03T05:57:39.848Z,101386.94
2018-08-03T05:58:41.990Z,101386.53
2018-08-03T06:03:28.798Z,101388.09
2018-08-03T06:04:29.569Z,101388.03
2018-08-03T06:05:30.338Z,101388.24
2018-08-03T06:06:31.116Z,101388.31
2018-08-03T06:07:31.885Z,101388.25
2018-08-03T06:08:32.687Z,101387.94
2018-08-03T06:09:33.476Z,101388.36
2018-08-03T06:10:33.227Z,101388.43
2018-08-03T06:11:34.996Z,101389.02
2018-08-03T06:12:41.771Z,101388.63
2018-08-03T06:13:36.565Z,101388.82
2018-08-03T06:14:37.351Z,101389.33
2018-08-03T06:15:38.110Z,101389.05
2018-08-03T06:16:38.885Z,101389.70
2018-08-03T06:17:39.657Z,101389.78
2018-08-03T06:18:40.452Z,101389.98
2018-08-03T06:19:42.219Z,101390.41
2018-08-03T06:20:42.134Z,101390.32
2018-08-03T06:21:41.774Z,101390.72
2018-08-03T06:22:43.546Z,101390.73
2018-08-03T06:23:44.354Z,101391.22
2018-08-03T06:24:45.129Z,101391.00
2018-08-03T06:25:45.904Z,101391.41
2018-08-03T06:26:46.677Z,101391.03
2018-08-03T06:27:47.448Z,101390.55
2018-08-03T06:28:48.251Z,101390.63
2018-08-03T06:29:49.177Z,101390.56
2018-08-03T06:30:48.788Z,101390.20
2018-08-03T06:31:50.563Z,101389.63
2018-08-03T06:32:51.337Z,101389.25
2018-08-03T06:33:52.129Z,101389.09
2018-08-03T06:34:52.904Z,101388.67
2018-08-03T06:35:53.675Z,101388.52
2018-08-03T06:36:53.458Z,101388.80
2018-08-03T06:37:55.230Z,101387.89
2018-08-03T06:38:56.028Z,101388.27
2018-08-03T06:39:56.800Z,101387.92
2018-08-03T06:40:57.580Z,101388.56
2018-08-03T06:41:58.360Z,101388.58
2018-08-03T06:42:59.133Z,101388.80
2018-08-03T06:43:59.933Z,101388.52
2018-08-03T06:45:00.711Z,101388.44
2018-08-03T06:46:01.477Z,101387.99
2018-08-03T06:47:02.255Z,101388.06
2018-08-03T06:48:03.028Z,101387.72
2018-08-03T06:49:03.826Z,101388.43
2018-08-03T06:50:04.602Z,101388.57
2018-08-03T06:51:05.368Z,101388.86
2018-08-03T06:52:06.140Z,101388.39
2018-08-03T06:53:06.912Z,101388.84
2018-08-03T06:54:07.710Z,101389.15
2018-08-03T06:55:08.483Z,101388.84
2018-08-03T06:56:09.256Z,101388.45
2018-08-03T06:57:10.031Z,101388.36
2018-08-03T06:58:10.802Z,101388.77
2018-08-03T06:59:11.604Z,101388.61
2018-08-03T07:00:12.377Z,101388.31
2018-08-03T07:01:13.156Z,101388.56
2018-08-03T07:02:13.930Z,101389.25
2018-08-03T07:03:14.706Z,101389.11
2018-08-03T07:04:15.513Z,101389.05
2018-08-03T07:05:16.281Z,101389.09
2018-08-03T07:06:17.058Z,101388.63
2018-08-03T07:07:17.829Z,101388.61
2018-08-03T07:08:18.601Z,101388.12
2018-08-03T07:09:19.405Z,101388.30
2018-08-03T07:10:20.180Z,101388.25
2018-08-03T07:11:20.951Z,101388.05
2018-08-03T07:12:21.731Z,101387.59
2018-08-03T07:13:22.502Z,101387.30
2018-08-03T07:14:23.304Z,101387.02
2018-08-03T07:15:24.223Z,101386.04
2018-08-03T07:16:24.181Z,101385.89
2018-08-03T07:17:25.095Z,101384.75
2018-08-03T07:18:26.008Z,101384.28
2018-08-03T07:19:27.145Z,101383.29
2018-08-03T07:20:27.158Z,101381.90
2018-08-03T07:21:28.025Z,101381.55
2018-08-03T07:22:28.969Z,101380.58
2018-08-03T07:23:29.924Z,101379.66
2018-08-03T07:24:31.003Z,101378.72
2018-08-03T07:25:30.951Z,101378.27
2018-08-03T07:26:31.904Z,101377.52
2018-08-03T07:27:32.836Z,101377.41
2018-08-03T07:28:33.784Z,101377.53
2018-08-03T07:29:35.731Z,101376.81
2018-08-03T07:30:35.574Z,101376.50
2018-08-03T07:31:36.500Z,101376.09
2018-08-03T07:32:37.421Z,101375.80
2018-08-03T07:33:38.378Z,101375.56
2018-08-03T07:34:39.436Z,101375.62
2018-08-03T07:35:39.389Z,101375.78
2018-08-03T07:36:40.314Z,101375.73
2018-08-03T07:37:41.198Z,101375.87
2018-08-03T07:38:42.099Z,101375.63
2018-08-03T07:39:43.237Z,101375.66
2018-08-03T07:40:43.165Z,101376.06
2018-08-03T07:41:44.099Z,101375.86
2018-08-03T07:42:45.031Z,101375.81
2018-08-03T07:43:45.972Z,101375.02
2018-08-03T07:44:46.695Z,101374.86
2018-08-03T07:45:48.465Z,101375.13
2018-08-03T07:46:49.245Z,101374.92
2018-08-03T07:47:50.264Z,101374.75
2018-08-03T07:48:50.167Z,101374.70
2018-08-03T07:49:51.257Z,101374.92
2018-08-03T07:50:51.211Z,101375.08
2018-08-03T07:51:52.139Z,101374.37
2018-08-03T07:52:53.076Z,101374.39
2018-08-03T07:53:53.976Z,101374.19
2018-08-03T07:54:55.041Z,101373.41
2018-08-03T07:55:54.920Z,101372.66
2018-08-03T07:56:55.873Z,101372.03
2018-08-03T07:57:56.803Z,101371.76
2018-08-03T07:58:57.726Z,101371.27
2018-08-03T07:59:58.762Z,101371.22
2018-08-03T08:00:58.706Z,101371.08
2018-08-03T08:01:59.662Z,101370.70
2018-08-03T08:03:00.587Z,101370.20
2018-08-03T08:04:01.536Z,101370.14
2018-08-03T08:05:02.667Z,101370.16
2018-08-03T08:06:02.569Z,101369.52
2018-08-03T08:07:03.519Z,101368.76
2018-08-03T08:08:04.412Z,101368.42
2018-08-03T08:09:05.296Z,101368.40
2018-08-03T08:10:06.435Z,101368.01
2018-08-03T08:11:06.369Z,101367.19
2018-08-03T08:12:07.244Z,101366.34
2018-08-03T08:13:08.141Z,101365.80
2018-08-03T08:14:09.075Z,101365.07
2018-08-03T08:15:10.240Z,101364.30
2018-08-03T08:16:10.093Z,101363.45
2018-08-03T08:17:11.003Z,101363.27
2018-08-03T08:18:11.922Z,101362.52
2018-08-03T08:19:12.861Z,101361.70
2018-08-03T08:20:14.933Z,101360.94
2018-08-03T08:21:13.866Z,101360.22
2018-08-03T08:22:14.760Z,101359.61
2018-08-03T08:23:16.668Z,101358.56
2018-08-03T08:24:16.640Z,101358.00
2018-08-03T08:25:17.638Z,101357.42
2018-08-03T08:26:18.522Z,101355.86
2018-08-03T08:27:19.429Z,101355.63
2018-08-03T08:28:20.330Z,101354.78
2018-08-03T08:29:21.285Z,101354.09
2018-08-03T08:30:22.317Z,101353.73
2018-08-03T08:31:22.302Z,101353.13
2018-08-03T08:32:23.145Z,101352.35
2018-08-03T08:33:23.838Z,101351.56
2018-08-03T08:34:25.770Z,101351.72
2018-08-03T08:35:25.505Z,101350.92
2018-08-03T08:36:27.273Z,101350.30
2018-08-03T08:37:28.052Z,101349.68
2018-08-03T08:38:28.826Z,101349.90
2018-08-03T08:39:28.599Z,101349.13
2018-08-03T08:40:30.399Z,101348.45
2018-08-03T08:41:31.177Z,101347.97
2018-08-03T08:42:31.958Z,101348.02
2018-08-03T08:43:32.848Z,101347.84
2018-08-03T08:44:32.503Z,101346.77
2018-08-03T08:45:34.299Z,101347.16
2018-08-03T08:46:35.077Z,101346.63
2018-08-03T08:47:35.848Z,101346.09
2018-08-03T08:48:36.671Z,101345.36
2018-08-03T08:49:38.445Z,101344.38
2018-08-03T08:50:38.240Z,101344.19
2018-08-03T08:51:39.014Z,101344.07
2018-08-03T08:52:39.807Z,101343.59
2018-08-03T08:53:40.561Z,101342.59
2018-08-03T08:54:41.366Z,101341.66
2018-08-03T08:55:42.134Z,101340.83
2018-08-03T08:56:42.905Z,101340.31
2018-08-03T08:57:43.682Z,101339.23
2018-08-03T08:58:44.466Z,101338.58
2018-08-03T08:59:45.323Z,101337.89
2018-08-03T09:00:45.041Z,101337.30
2018-08-03T09:01:47.172Z,101336.89
2018-08-03T09:02:49.936Z,101336.48
2018-08-03T09:03:59.721Z,101332.46
2018-08-03T09:05:00.496Z,101332.42
2018-08-03T09:06:01.291Z,101332.81
2018-08-03T09:07:02.065Z,101332.53
2018-08-03T09:08:02.835Z,101332.11
2018-08-03T09:09:03.606Z,101331.70
2018-08-03T09:10:04.386Z,101331.83
2018-08-03T09:11:05.190Z,101331.28
2018-08-03T09:12:05.954Z,101331.28
2018-08-03T09:13:06.726Z,101331.11
2018-08-03T09:14:06.494Z,101331.22
2018-08-03T09:15:08.269Z,101330.50
2018-08-03T09:16:09.066Z,101330.61
2018-08-03T09:17:09.841Z,101330.23
2018-08-03T09:18:10.619Z,101329.43
2018-08-03T09:19:11.393Z,101328.53
2018-08-03T09:20:12.167Z,101327.83
2018-08-03T09:21:12.962Z,101327.02
2018-08-03T09:22:13.839Z,101326.05
2018-08-03T09:23:13.520Z,101325.48
2018-08-03T09:24:15.296Z,101324.32
2018-08-03T09:25:16.069Z,101323.75
2018-08-03T09:26:16.869Z,101322.66
2018-08-03T09:27:17.644Z,101321.50
2018-08-03T09:28:18.454Z,101320.76
2018-08-03T09:29:18.197Z,101319.77
2018-08-03T09:30:19.971Z,101318.92
2018-08-03T09:31:20.768Z,101317.63
2018-08-03T09:32:21.544Z,101316.31
2018-08-03T09:33:22.312Z,101314.77
2018-08-03T09:34:23.082Z,101313.70
2018-08-03T09:35:23.855Z,101311.87
2018-08-03T09:36:24.659Z,101310.63
2018-08-03T09:37:25.437Z,101308.89
2018-08-03T09:38:26.196Z,101307.38
2018-08-03T09:39:26.986Z,101305.70
2018-08-03T09:40:27.744Z,101304.80
2018-08-03T09:41:28.544Z,101303.11
2018-08-03T09:42:29.318Z,101302.18
2018-08-03T09:43:30.091Z,101300.10
2018-08-03T09:44:30.875Z,101298.44
2018-08-03T09:45:31.639Z,101297.25
2018-08-03T09:46:32.442Z,101296.67
2018-08-03T09:47:33.216Z,101295.59
2018-08-03T09:48:33.990Z,101293.47
2018-08-03T09:49:34.764Z,101292.80
2018-08-03T09:50:35.553Z,101291.23
2018-08-03T09:51:36.346Z,101290.32
2018-08-03T09:52:37.119Z,101288.50
2018-08-03T09:53:37.895Z,101287.69
2018-08-03T09:54:38.665Z,101286.70
2018-08-03T09:55:39.448Z,101286.00
2018-08-03T09:56:40.277Z,101284.87
2018-08-03T09:57:41.048Z,101284.13
2018-08-03T09:58:41.822Z,101282.89
2018-08-03T09:59:42.590Z,101281.09
2018-08-03T10:00:43.371Z,101279.33
2018-08-03T10:01:44.193Z,101277.80
2018-08-03T10:02:43.942Z,101276.63
2018-08-03T10:03:45.713Z,101275.35
2018-08-03T10:04:46.485Z,101274.00
2018-08-03T10:05:47.262Z,101272.48
2018-08-03T10:06:48.142Z,101271.33
2018-08-03T10:07:47.843Z,101269.73
2018-08-03T10:08:49.614Z,101268.56
2018-08-03T10:09:50.384Z,101267.38
2018-08-03T10:10:51.161Z,101266.27
2018-08-03T10:11:51.955Z,101265.47
2018-08-03T10:12:52.798Z,101264.70
2018-08-03T10:13:52.499Z,101263.53
2018-08-03T10:14:54.272Z,101262.41
2018-08-03T10:15:55.046Z,101260.38
2018-08-03T10:16:55.844Z,101259.06
2018-08-03T10:17:56.616Z,101257.59
2018-08-03T10:18:57.391Z,101256.09
2018-08-03T10:19:58.161Z,101254.52
2018-08-03T10:20:58.933Z,101253.02
2018-08-03T10:21:59.736Z,101251.42
2018-08-03T10:23:00.508Z,101250.08
2018-08-03T10:24:01.285Z,101248.81
2018-08-03T10:25:02.052Z,101247.59
2018-08-03T10:26:02.833Z,101246.53
2018-08-03T10:27:03.623Z,101245.60
2018-08-03T10:28:04.408Z,101244.59
2018-08-03T10:29:05.170Z,101243.48
2018-08-03T10:30:05.942Z,101242.11
2018-08-03T10:31:06.716Z,101240.86
2018-08-03T10:32:07.521Z,101239.66
2018-08-03T10:33:08.299Z,101238.73
2018-08-03T10:34:09.064Z,101237.47
2018-08-03T10:35:09.892Z,101236.11
2018-08-03T10:36:09.620Z,101234.92
2018-08-03T10:37:11.417Z,101234.18
2018-08-03T10:38:12.194Z,101232.75
2018-08-03T10:39:12.966Z,101231.56
2018-08-03T10:40:13.744Z,101229.95
2018-08-03T10:41:14.520Z,101228.97
2018-08-03T10:42:15.318Z,101227.61
2018-08-03T10:43:16.235Z,101226.05
2018-08-03T10:44:15.865Z,101224.52
2018-08-03T10:45:17.647Z,101222.95
2018-08-03T10:46:18.415Z,101221.37
2018-08-03T10:47:19.220Z,101220.39
2018-08-03T10:48:19.989Z,101218.86
2018-08-03T10:49:20.772Z,101217.55
2018-08-03T10:50:21.543Z,101216.53
2018-08-03T10:51:22.373Z,101215.56
2018-08-03T10:52:22.126Z,101214.09
2018-08-03T10:53:23.896Z,101213.28
2018-08-03T10:54:24.671Z,101212.22
2018-08-03T10:55:25.443Z,101210.67
2018-08-03T10:56:26.219Z,101209.66
2018-08-03T10:57:27.012Z,101209.17
2018-08-03T10:58:29.166Z,101208.12
2018-08-03T11:03:32.890Z,101186.22
2018-08-03T11:04:33.665Z,101186.40
2018-08-03T11:05:34.432Z,101185.94
2018-08-03T11:06:35.202Z,101186.00
2018-08-03T11:07:35.975Z,101186.16
2018-08-03T11:08:36.777Z,101186.32
2018-08-03T11:09:37.543Z,101185.68
2018-08-03T11:10:38.325Z,101185.49
2018-08-03T11:11:39.101Z,101185.13
2018-08-03T11:12:39.873Z,101184.58
2018-08-03T11:13:40.699Z,101184.01
2018-08-03T11:14:40.441Z,101183.75
2018-08-03T11:15:42.212Z,101183.70
2018-08-03T11:16:42.988Z,101183.09
2018-08-03T11:17:43.763Z,101182.52
2018-08-03T11:18:44.567Z,101181.63
2018-08-03T11:19:45.336Z,101181.68
2018-08-03T11:20:46.103Z,101181.22
2018-08-03T11:21:46.874Z,101180.67
2018-08-03T11:22:47.647Z,101179.89
2018-08-03T11:23:48.447Z,101179.67
2018-08-03T11:24:49.219Z,101179.23
2018-08-03T11:25:49.997Z,101179.23
2018-08-03T11:26:50.771Z,101178.72
2018-08-03T11:27:50.554Z,101177.78
2018-08-03T11:28:52.351Z,101177.30
2018-08-03T11:29:53.125Z,101177.00
2018-08-03T11:30:53.896Z,101176.58
2018-08-03T11:31:54.670Z,101175.93
2018-08-03T11:32:55.440Z,101175.13
2018-08-03T11:33:56.246Z,101174.36
2018-08-03T11:34:57.022Z,101173.47
2018-08-03T11:35:57.802Z,101173.41
2018-08-03T11:36:58.576Z,101173.18
2018-08-03T11:37:59.363Z,101172.46
2018-08-03T11:39:00.156Z,101172.38
2018-08-03T11:40:00.944Z,101171.88
2018-08-03T11:41:01.703Z,101170.78
2018-08-03T11:42:02.480Z,101169.83
2018-08-03T11:43:03.270Z,101169.25
2018-08-03T11:44:03.052Z,101168.04
2018-08-03T11:45:04.825Z,101166.45
2018-08-03T11:46:05.604Z,101165.23
2018-08-03T11:47:06.374Z,101164.28
2018-08-03T11:48:07.150Z,101162.42
2018-08-03T11:49:07.948Z,101161.73
2018-08-03T11:50:08.722Z,101160.44